Time;durP1;ratioP1;P1;durP2;ratioP2;P2;SDS_P1;SDS_P2;PMS_P1;PMS_P2;Temp;Humidity;BMP_temperature;BMP_pressure;BME280_temperature;BME280_humidity;BME280_pressure;Samples;Min_cycle;Max_cycle;Signal;HPM_P1;HPM_P2
2023/06/27 00:03:34;;;;;;;11.05;5.60;;;21.90;95.90;;;;;;4915165;29;20614;-79
2023/06/27 00:06:22;;;;;;;10.18;5.75;;;22.30;95.40;;;;;;4919961;29;20080;-84
2023/06/27 00:09:49;;;;;;;8.65;5.93;;;22.00;95.70;;;;;;4918440;29;20069;-80
2023/06/27 00:12:32;;;;;;;8.80;5.80;;;21.40;97.00;;;;;;4939068;29;20048;-83
2023/06/27 00:16:24;;;;;;;;;;;;;;;;;;;;;
2023/06/27 00:19:12;;;;;;;12.25;5.78;;;21.70;96.70;;;;;;4911307;29;20076;-82
2023/06/27 00:21:40;;;;;;;10.52;6.25;;;21.40;97.50;;;;;;4907152;29;20579;-78
2023/06/27 00:24:10;;;;;;;8.80;5.93;;;21.20;98.20;;;;;;4899345;29;20048;-78
2023/06/27 00:26:39;;;;;;;9.32;6.15;;;21.50;97.80;;;;;;4920939;29;20116;-78
2023/06/27 00:29:09;;;;;;;13.10;6.20;;;21.80;97.30;;;;;;5313727;23;20642;-79
2023/06/27 00:32:03;;;;;;;9.98;6.05;;;21.90;97.30;;;;;;4896272;29;20074;-77
2023/06/27 00:34:30;;;;;;;11.52;5.80;;;21.50;97.90;;;;;;4890924;29;20109;-82
2023/06/27 00:36:59;;;;;;;10.48;5.72;;;21.50;98.20;;;;;;4891038;29;20116;-83
2023/06/27 00:39:27;;;;;;;8.65;6.20;;;21.50;98.30;;;;;;4890242;29;20052;-82
2023/06/27 00:42:08;;;;;;;9.05;5.88;;;21.70;98.20;;;;;;4891907;29;20048;-79
2023/06/27 00:44:36;;;;;;;8.13;5.45;;;21.90;97.90;;;;;;4897867;29;20063;-83
2023/06/27 00:47:05;;;;;;;9.43;6.43;;;22.10;97.50;;;;;;4908037;29;20052;-79
2023/06/27 00:49:34;;;;;;;10.57;5.73;;;22.10;97.30;;;;;;4905430;29;20087;-80
2023/06/27 00:52:03;;;;;;;8.10;5.95;;;21.90;97.50;;;;;;4900423;29;20061;-81
2023/06/27 00:58:03;;;;;;;12.15;7.47;;;22.00;98.20;;;;;;4958994;23;20452;-79
2023/06/27 01:00:31;;;;;;;13.98;7.40;;;22.00;98.40;;;;;;4919073;29;20032;-78
2023/06/27 01:02:58;;;;;;;13.85;7.47;;;22.00;98.60;;;;;;4901481;29;20068;-79
2023/06/27 01:05:27;;;;;;;10.95;7.05;;;22.10;98.60;;;;;;4921806;29;20040;-79
2023/06/27 01:08:03;;;;;;;17.77;9.65;;;22.00;98.60;;;;;;4931433;29;20072;-80
2023/06/27 01:11:11;;;;;;;16.55;9.73;;;21.90;99.40;;;;;;4909068;29;20080;-79
2023/06/27 01:14:09;;;;;;;17.80;10.30;;;21.90;99.20;;;;;;5158201;23;20044;-81
2023/06/27 01:16:40;;;;;;;16.30;10.30;;;21.90;99.10;;;;;;4930114;29;20453;-79
2023/06/27 01:19:13;;;;;;;18.55;9.88;;;21.70;99.30;;;;;;4916482;29;20050;-79
2023/06/27 01:25:38;;;;;;;16.95;10.23;;;21.70;99.80;;;;;;4916081;29;20043;-78
2023/06/27 01:28:14;;;;;;;14.85;9.73;;;21.60;99.90;;;;;;4921906;29;20080;-79
2023/06/27 01:30:42;;;;;;;16.45;10.05;;;21.40;99.90;;;;;;4913504;29;20052;-81
2023/06/27 01:33:33;;;;;;;18.67;9.32;;;21.50;99.90;;;;;;4931603;29;20874;-82
2023/06/27 01:36:10;;;;;;;14.90;9.73;;;21.20;99.90;;;;;;4915170;29;20098;-78
2023/06/27 01:38:53;;;;;;;18.15;10.13;;;21.40;99.90;;;;;;4915510;29;20041;-79
2023/06/27 01:46:59;;;;;;;17.10;9.13;;;21.50;99.90;;;;;;5716340;23;20064;-80
2023/06/27 01:49:26;;;;;;;16.63;9.63;;;21.50;99.90;;;;;;4914575;29;20041;-82
2023/06/27 01:51:57;;;;;;;15.80;9.57;;;21.30;99.90;;;;;;4915011;29;20045;-79
2023/06/27 01:54:54;;;;;;;17.33;10.10;;;21.30;99.90;;;;;;4925676;29;20044;-79
2023/06/27 02:02:57;;;;;;;15.70;9.13;;;21.40;99.90;;;;;;4882509;29;20056;-79
2023/06/27 02:05:25;;;;;;;17.98;9.23;;;21.10;99.90;;;;;;4909356;29;20453;-81
2023/06/27 02:07:52;;;;;;;14.68;9.38;;;21.00;99.90;;;;;;4914881;29;20100;-81
2023/06/27 02:10:21;;;;;;;15.57;8.95;;;21.00;99.90;;;;;;4917123;29;20044;-82
2023/06/27 02:12:50;;;;;;;15.70;8.88;;;21.00;99.90;;;;;;4925160;29;20048;-81
2023/06/27 02:15:20;;;;;;;15.02;8.93;;;21.00;99.90;;;;;;4908916;29;20052;-77
2023/06/27 02:18:06;;;;;;;;;;;;;;;;;;;;;
2023/06/27 02:21:24;;;;;;;18.30;9.48;;;20.90;99.90;;;;;;4880042;29;20049;-80
2023/06/27 02:23:51;;;;;;;14.45;8.63;;;21.00;99.90;;;;;;4900073;29;20053;-81
2023/06/27 02:26:19;;;;;;;15.05;9.25;;;21.10;99.90;;;;;;4919658;29;20252;-82
2023/06/27 02:28:48;;;;;;;16.80;8.70;;;21.10;99.90;;;;;;4933336;29;20056;-82
2023/06/27 02:31:16;;;;;;;19.52;9.40;;;21.00;99.90;;;;;;4921883;29;20396;-80
2023/06/27 02:33:44;;;;;;;18.33;9.40;;;21.00;99.90;;;;;;4912501;29;20131;-76
2023/06/27 02:36:15;;;;;;;16.58;10.05;;;20.90;99.90;;;;;;4905650;29;20055;-74
2023/06/27 02:38:43;;;;;;;15.88;9.88;;;20.70;99.90;;;;;;4901141;29;20101;-76
2023/06/27 02:41:14;;;;;;;12.05;8.55;;;20.60;99.90;;;;;;4917825;29;20087;-78
2023/06/27 02:43:57;;;;;;;17.13;8.75;;;20.80;99.90;;;;;;4910756;29;20091;-77
2023/06/27 02:46:45;;;;;;;14.48;8.70;;;20.90;99.90;;;;;;4904057;29;20050;-77
2023/06/27 02:49:13;;;;;;;13.00;8.93;;;21.00;99.90;;;;;;4915651;29;20135;-78
2023/06/27 02:51:40;;;;;;;13.25;8.50;;;20.90;99.90;;;;;;4901682;29;20041;-76
2023/06/27 02:54:07;;;;;;;14.10;8.38;;;20.90;99.90;;;;;;4909014;29;20046;-79
2023/06/27 02:56:34;;;;;;;13.40;8.65;;;20.70;99.90;;;;;;4905398;29;20036;-74
2023/06/27 02:59:02;;;;;;;17.67;8.02;;;20.80;99.90;;;;;;4909440;29;20064;-76
2023/06/27 03:01:29;;;;;;;16.08;9.20;;;20.70;99.90;;;;;;4916803;29;20044;-76
2023/06/27 03:03:56;;;;;;;13.50;7.90;;;20.90;99.90;;;;;;4917376;29;20104;-74
2023/06/27 03:09:21;;;;;;;14.18;8.50;;;20.70;99.90;;;;;;4919601;29;20032;-75
2023/06/27 03:11:48;;;;;;;13.77;8.85;;;20.80;99.90;;;;;;4917204;29;20136;-77
2023/06/27 03:14:17;;;;;;;14.80;8.77;;;20.90;99.90;;;;;;4914609;29;20091;-76
2023/06/27 03:16:45;;;;;;;14.93;10.02;;;20.90;99.90;;;;;;4926830;29;20055;-75
2023/06/27 03:19:12;;;;;;;15.77;8.63;;;20.80;99.90;;;;;;4912268;29;20064;-73
2023/06/27 03:21:40;;;;;;;17.15;9.30;;;20.80;99.90;;;;;;4901093;29;20052;-74
2023/06/27 03:24:23;;;;;;;16.85;9.30;;;20.80;99.90;;;;;;4888202;29;20044;-74
2023/06/27 03:26:50;;;;;;;12.70;8.93;;;20.70;99.90;;;;;;4906939;29;20052;-75
2023/06/27 03:29:18;;;;;;;15.73;9.82;;;20.60;99.90;;;;;;4910814;29;20053;-76
2023/06/27 03:31:45;;;;;;;19.83;8.95;;;20.60;99.90;;;;;;4906232;29;20384;-74
2023/06/27 03:34:13;;;;;;;14.68;8.32;;;20.60;99.90;;;;;;4908278;29;20045;-75
2023/06/27 03:36:40;;;;;;;13.73;8.23;;;20.60;99.90;;;;;;4904067;29;20060;-75
2023/06/27 03:39:07;;;;;;;12.18;8.13;;;20.80;99.90;;;;;;4900419;29;20069;-76
2023/06/27 03:41:35;;;;;;;13.30;8.75;;;20.50;99.90;;;;;;4908227;29;20058;-76
2023/06/27 03:44:05;;;;;;;11.52;7.82;;;20.50;99.90;;;;;;4908037;29;20052;-76
2023/06/27 03:46:32;;;;;;;12.88;7.85;;;20.60;99.90;;;;;;4919311;29;20051;-75
2023/06/27 03:49:00;;;;;;;13.30;7.53;;;20.80;99.90;;;;;;4903299;29;20048;-75
2023/06/27 03:51:30;;;;;;;14.23;8.50;;;20.80;99.90;;;;;;4930587;29;20048;-75
2023/06/27 03:54:00;;;;;;;12.38;7.82;;;20.80;99.90;;;;;;4916460;29;20063;-74
2023/06/27 03:56:30;;;;;;;13.60;7.90;;;20.60;99.90;;;;;;4915258;29;20052;-76
2023/06/27 03:58:57;;;;;;;13.85;8.68;;;20.20;99.90;;;;;;4901089;29;20048;-77
2023/06/27 04:01:59;;;;;;;11.65;7.68;;;20.50;99.90;;;;;;4919087;23;20435;-74
2023/06/27 04:05:08;;;;;;;13.27;8.32;;;20.70;99.90;;;;;;4881531;29;20060;-74
2023/06/27 04:07:36;;;;;;;11.80;7.63;;;20.80;99.90;;;;;;4880718;29;20420;-74
2023/06/27 04:10:03;;;;;;;12.43;7.50;;;20.90;99.90;;;;;;4873023;29;20041;-74
2023/06/27 04:12:30;;;;;;;13.15;8.02;;;20.90;99.90;;;;;;4868712;29;20514;-75
2023/06/27 04:14:58;;;;;;;11.07;7.88;;;20.90;99.90;;;;;;4863622;29;20435;-75
2023/06/27 04:17:25;;;;;;;12.30;7.65;;;21.00;99.90;;;;;;4865884;29;20456;-75
2023/06/27 04:19:52;;;;;;;13.52;7.65;;;20.90;99.90;;;;;;4866230;29;20041;-76
2023/06/27 04:22:20;;;;;;;12.23;7.95;;;21.10;99.90;;;;;;4875656;29;20132;-75
2023/06/27 04:24:47;;;;;;;15.82;8.60;;;21.10;99.90;;;;;;4865779;29;20054;-76
2023/06/27 04:27:17;;;;;;;13.20;8.02;;;21.20;99.90;;;;;;4879621;29;20049;-75
2023/06/27 04:29:50;;;;;;;17.10;8.20;;;21.10;99.90;;;;;;4864830;29;20379;-77
2023/06/27 04:32:20;;;;;;;13.95;8.10;;;21.00;99.90;;;;;;4870542;29;20057;-76
2023/06/27 04:34:50;;;;;;;14.07;9.18;;;21.10;99.90;;;;;;4873612;29;20127;-75
2023/06/27 04:37:18;;;;;;;14.15;9.43;;;21.30;99.90;;;;;;4876610;29;20048;-74
2023/06/27 04:39:45;;;;;;;16.75;10.32;;;21.20;99.90;;;;;;4874359;29;20421;-72
2023/06/27 04:42:14;;;;;;;16.23;9.90;;;21.30;99.90;;;;;;4863919;29;20060;-75
2023/06/27 04:44:41;;;;;;;15.77;10.00;;;21.30;99.90;;;;;;4873602;29;20502;-77
2023/06/27 04:47:11;;;;;;;16.05;10.00;;;21.20;99.90;;;;;;4855872;29;20144;-77
2023/06/27 04:49:38;;;;;;;12.23;8.88;;;21.10;99.90;;;;;;4871895;29;20112;-76
2023/06/27 04:52:06;;;;;;;15.82;9.23;;;21.20;99.90;;;;;;4890463;29;20140;-77
2023/06/27 04:54:33;;;;;;;16.08;9.85;;;21.30;99.90;;;;;;4869684;29;20034;-77
2023/06/27 04:57:01;;;;;;;13.35;8.95;;;21.30;99.90;;;;;;4872314;29;20056;-77
2023/06/27 04:59:31;;;;;;;18.65;9.45;;;21.40;99.90;;;;;;4881266;29;20081;-78
2023/06/27 05:02:00;;;;;;;14.27;9.57;;;21.40;99.90;;;;;;4877315;29;20067;-78
2023/06/27 05:04:30;;;;;;;13.38;8.85;;;21.50;99.90;;;;;;4896298;29;20108;-77
2023/06/27 05:06:58;;;;;;;15.85;8.50;;;21.50;99.90;;;;;;4891914;29;20113;-77
2023/06/27 05:09:26;;;;;;;15.80;10.00;;;21.60;99.90;;;;;;4888424;29;20088;-76
2023/06/27 05:11:53;;;;;;;16.30;9.50;;;21.60;99.90;;;;;;4897817;29;20246;-76
2023/06/27 05:14:20;;;;;;;53.42;31.17;;;21.60;99.90;;;;;;4892522;29;20088;-76
2023/06/27 05:16:47;;;;;;;74.43;48.13;;;21.50;99.90;;;;;;4893320;29;20053;-77
2023/06/27 05:19:15;;;;;;;174.90;112.85;;;21.70;99.90;;;;;;4889877;29;20076;-78
2023/06/27 05:21:43;;;;;;;32.28;21.88;;;21.80;99.90;;;;;;4883878;29;20135;-78
2023/06/27 05:24:10;;;;;;;31.02;18.55;;;21.70;99.90;;;;;;4897904;29;20127;-77
2023/06/27 05:26:57;;;;;;;25.05;16.33;;;21.80;99.90;;;;;;4888146;29;20091;-76
2023/06/27 05:29:26;;;;;;;26.35;13.32;;;21.90;99.90;;;;;;4873759;29;20112;-77
2023/06/27 05:32:25;;;;;;;;;;;22.00;99.90;;;;;;4992239;23;20133;-76
2023/06/27 05:34:54;;;;;;;19.98;11.30;;;21.90;99.90;;;;;;4895856;29;19926;-76
2023/06/27 05:37:24;;;;;;;22.25;12.13;;;22.00;99.90;;;;;;4864976;29;20060;-78
2023/06/27 05:39:57;;;;;;;22.05;11.82;;;22.00;99.90;;;;;;4883363;29;20080;-77
2023/06/27 05:42:57;;;;;;;19.30;10.57;;;22.10;99.90;;;;;;5141418;23;20023;-76
2023/06/27 05:45:28;;;;;;;18.73;10.77;;;22.10;99.90;;;;;;5453657;23;20430;-75
2023/06/27 05:47:55;;;;;;;17.30;10.30;;;22.10;99.90;;;;;;4896452;29;20085;-76
2023/06/27 05:50:22;;;;;;;16.42;8.65;;;22.10;99.90;;;;;;4899168;29;20140;-76
2023/06/27 05:52:50;;;;;;;18.92;9.18;;;22.10;99.90;;;;;;4897906;29;20147;-75
2023/06/27 05:55:17;;;;;;;14.27;9.10;;;22.20;99.90;;;;;;4898656;29;20051;-77
2023/06/27 05:57:49;;;;;;;14.77;8.98;;;22.30;99.90;;;;;;4899376;29;20083;-76
2023/06/27 06:00:17;;;;;;;18.02;9.45;;;22.10;99.90;;;;;;4889714;29;20053;-77
2023/06/27 06:06:38;;;;;;;14.70;8.57;;;22.30;99.90;;;;;;4915554;29;20108;-76
2023/06/27 06:09:41;;;;;;;;;;;;;;;;;;;;;
2023/06/27 06:12:40;;;;;;;18.73;9.18;;;22.40;99.90;;;;;;4905989;29;20059;-77
2023/06/27 06:15:08;;;;;;;16.33;8.05;;;22.60;99.90;;;;;;4920692;29;20089;-78
2023/06/27 06:17:38;;;;;;;14.77;7.75;;;22.50;99.90;;;;;;4910238;29;20115;-77
2023/06/27 06:20:10;;;;;;;;;;;22.60;99.90;;;;;;4901830;29;20040;-77
2023/06/27 06:22:40;;;;;;;18.25;8.82;;;22.70;99.90;;;;;;5311465;23;19930;-76
2023/06/27 06:25:11;;;;;;;12.40;7.93;;;22.80;99.90;;;;;;4933184;29;20122;-79
2023/06/27 06:27:50;;;;;;;17.48;8.40;;;22.80;99.90;;;;;;4935908;29;20286;-77
2023/06/27 06:33:40;;;;;;;12.65;7.78;;;23.00;99.90;;;;;;1218264;27;20135;-76
2023/06/27 06:36:07;;;;;;;15.38;7.88;;;23.10;99.90;;;;;;4901290;29;20144;-75
2023/06/27 06:38:36;;;;;;;13.30;8.10;;;23.10;99.90;;;;;;4914072;29;20040;-76
2023/06/27 06:41:04;;;;;;;21.27;14.55;;;23.20;99.90;;;;;;4901256;29;20051;-78
2023/06/27 06:43:35;;;;;;;26.98;15.48;;;23.30;99.90;;;;;;4917901;29;20040;-76
2023/06/27 06:46:03;;;;;;;26.90;17.55;;;23.40;99.90;;;;;;4899903;29;20052;-76
2023/06/27 06:48:31;;;;;;;17.60;10.18;;;23.40;99.90;;;;;;4899032;29;20071;-76
2023/06/27 06:54:49;;;;;;;;;;;;;;;;;;;;;
2023/06/27 06:57:40;;;;;;;13.90;8.02;;;23.40;99.90;;;;;;4909461;29;20056;-78
2023/06/27 07:01:05;;;;;;;;;;;;;;;;;;;;;
2023/06/27 07:03:52;;;;;;;14.77;8.00;;;23.60;99.90;;;;;;4910489;29;20049;-78
2023/06/27 07:06:20;;;;;;;14.23;8.57;;;23.70;99.90;;;;;;4903384;29;20107;-76
2023/06/27 07:08:48;;;;;;;17.25;7.72;;;23.80;99.90;;;;;;4916676;29;20048;-76
2023/06/27 07:11:16;;;;;;;15.40;8.82;;;23.80;99.90;;;;;;4903199;29;20078;-78
2023/06/27 07:14:27;;;;;;;12.73;8.05;;;23.90;99.90;;;;;;4908065;29;20075;-77
2023/06/27 07:17:23;;;;;;;41.65;25.48;;;23.90;99.90;;;;;;4911337;29;20494;-78
2023/06/27 07:19:55;;;;;;;20.23;11.02;;;24.00;99.90;;;;;;4910995;29;20523;-76
2023/06/27 07:22:23;;;;;;;17.58;9.13;;;24.10;99.90;;;;;;4898053;29;20051;-75
2023/06/27 07:28:16;;;;;;;17.15;7.82;;;24.20;99.90;;;;;;5131452;23;20076;-76
2023/06/27 07:30:45;;;;;;;13.35;7.50;;;24.30;99.90;;;;;;4907229;29;20037;-76
2023/06/27 07:34:02;;;;;;;12.07;6.78;;;24.50;99.90;;;;;;4901139;29;20057;-77
2023/06/27 07:36:33;;;;;;;12.73;6.85;;;24.50;99.70;;;;;;4902176;29;20040;-77
2023/06/27 07:39:06;;;;;;;16.50;7.97;;;24.60;99.10;;;;;;4903898;29;20496;-76
2023/06/27 07:41:35;;;;;;;12.93;7.40;;;24.60;98.80;;;;;;4890789;29;20096;-76
2023/06/27 07:44:03;;;;;;;13.95;6.93;;;24.70;98.70;;;;;;4883864;29;20068;-75
2023/06/27 07:46:30;;;;;;;9.73;6.45;;;24.70;98.50;;;;;;4897328;29;20462;-75
2023/06/27 07:52:35;;;;;;;9.95;6.13;;;24.70;98.10;;;;;;4904934;29;20044;-76
2023/06/27 07:55:04;;;;;;;8.45;5.25;;;24.80;97.00;;;;;;4900140;29;20063;-77
2023/06/27 07:57:33;;;;;;;8.57;5.45;;;24.90;96.50;;;;;;4892238;29;20044;-78
2023/06/27 08:01:14;;;;;;;8.20;6.03;;;24.90;96.20;;;;;;4887097;29;20049;-78
2023/06/27 08:03:54;;;;;;;8.25;5.45;;;25.00;95.70;;;;;;4896670;29;20040;-76
2023/06/27 08:06:21;;;;;;;9.55;5.55;;;25.00;95.30;;;;;;4886158;29;20056;-75
2023/06/27 08:09:07;;;;;;;9.50;5.63;;;25.00;95.10;;;;;;4894114;29;20511;-78
2023/06/27 08:11:36;;;;;;;7.65;4.85;;;25.10;94.10;;;;;;4893895;29;20116;-76
2023/06/27 08:14:04;;;;;;;7.38;5.45;;;25.00;93.90;;;;;;4889999;29;20053;-77
2023/06/27 08:16:38;;;;;;;7.38;4.30;;;25.00;93.90;;;;;;4892042;29;20458;-77
2023/06/27 08:19:09;;;;;;;9.13;5.38;;;25.10;94.30;;;;;;4896998;29;20508;-76
2023/06/27 08:22:12;;;;;;;7.65;4.88;;;25.10;93.80;;;;;;4885533;29;20055;-78
2023/06/27 08:25:28;;;;;;;9.25;5.25;;;25.10;93.40;;;;;;4876732;29;20036;-79
2023/06/27 08:30:57;;;;;;;7.88;5.32;;;25.50;93.80;;;;;;4948872;23;20040;-76
2023/06/27 08:33:54;;;;;;;7.57;5.47;;;25.60;93.50;;;;;;4939170;29;20106;-76
2023/06/27 08:36:21;;;;;;;12.20;6.10;;;25.60;93.30;;;;;;4940169;29;20411;-76
2023/06/27 08:39:26;;;;;;;7.75;5.03;;;25.60;93.10;;;;;;4906812;29;20051;-74
2023/06/27 08:41:54;;;;;;;8.77;5.50;;;25.70;92.70;;;;;;4938856;29;20062;-76
2023/06/27 08:44:25;;;;;;;10.55;5.78;;;25.70;92.40;;;;;;4926709;29;20853;-76
2023/06/27 08:51:23;;;;;;;32.78;24.95;;;25.80;92.40;;;;;;4909693;29;20552;-78
2023/06/27 08:55:31;;;;;;;13.75;6.18;;;25.90;91.70;;;;;;4902504;29;20052;-76
2023/06/27 08:58:14;;;;;;;9.38;5.57;;;25.90;91.30;;;;;;4882446;29;20464;-76
2023/06/27 09:00:47;;;;;;;8.18;5.22;;;26.00;91.10;;;;;;4875735;29;20111;-76
2023/06/27 09:03:52;;;;;;;8.48;5.50;;;26.00;91.00;;;;;;4921292;29;20425;-78
2023/06/27 09:06:44;;;;;;;10.82;5.72;;;26.10;91.40;;;;;;4922852;29;20068;-78
2023/06/27 09:09:12;;;;;;;9.90;5.25;;;26.40;91.50;;;;;;4930693;29;20050;-79
2023/06/27 09:11:58;;;;;;;10.05;5.88;;;26.40;91.00;;;;;;4939464;29;20055;-75
2023/06/27 09:14:26;;;;;;;14.90;6.65;;;26.50;91.00;;;;;;4932480;29;20039;-78
2023/06/27 09:17:03;;;;;;;15.02;9.90;;;26.70;90.20;;;;;;4943685;29;20052;-77
2023/06/27 09:24:32;;;;;;;12.13;5.30;;;26.50;89.90;;;;;;5051185;23;20062;-76
2023/06/27 09:27:06;;;;;;;8.05;5.15;;;26.60;87.40;;;;;;4915693;29;20054;-78
2023/06/27 09:33:25;;;;;;;10.43;6.18;;;26.90;88.80;;;;;;4904924;29;20033;-78
2023/06/27 09:39:48;;;;;;;9.77;5.22;;;27.10;87.00;;;;;;4884061;29;20056;-75
2023/06/27 09:42:16;;;;;;;8.63;5.72;;;27.00;87.00;;;;;;4864779;29;20413;-76
2023/06/27 09:45:56;;;;;;;9.18;6.05;;;26.90;86.70;;;;;;4834888;29;20410;-76
2023/06/27 09:48:24;;;;;;;10.18;5.85;;;27.20;86.50;;;;;;4841774;29;20557;-76
2023/06/27 09:50:58;;;;;;;7.60;5.18;;;27.40;85.20;;;;;;4823628;29;20400;-78
2023/06/27 09:53:26;;;;;;;37.53;30.75;;;27.50;83.80;;;;;;4826109;29;20380;-76
2023/06/27 09:55:59;;;;;;;52.15;37.58;;;27.60;84.20;;;;;;4843582;29;20069;-75
2023/06/27 09:58:44;;;;;;;17.17;10.20;;;27.70;83.90;;;;;;4832032;29;20574;-76
2023/06/27 10:11:25;;;;;;;8.15;5.53;;;28.00;82.40;;;;;;4775829;29;20134;-78
2023/06/27 10:14:21;;;;;;;7.85;4.88;;;28.30;81.20;;;;;;4744382;30;20552;-75
2023/06/27 10:17:10;;;;;;;10.70;5.90;;;28.40;80.10;;;;;;4767118;29;20048;-76
2023/06/27 10:20:27;;;;;;;9.25;5.30;;;28.30;77.90;;;;;;4784960;29;20058;-76
2023/06/27 10:22:55;;;;;;;10.38;5.03;;;27.80;78.20;;;;;;4797419;29;20096;-77
2023/06/27 10:25:23;;;;;;;7.90;5.10;;;27.60;77.90;;;;;;4791494;29;20141;-77
2023/06/27 10:28:37;;;;;;;10.88;5.38;;;27.60;78.40;;;;;;4776624;29;20071;-76
2023/06/27 10:32:40;;;;;;;7.90;4.90;;;27.90;79.00;;;;;;4810922;29;20061;-76
2023/06/27 10:36:17;;;;;;;8.35;5.25;;;28.50;78.40;;;;;;4804029;29;20066;-77
2023/06/27 10:39:42;;;;;;;8.85;5.13;;;28.70;77.90;;;;;;4820810;29;20054;-79
2023/06/27 10:43:17;;;;;;;9.63;5.28;;;29.00;76.20;;;;;;4837463;29;20061;-77
2023/06/27 10:46:24;;;;;;;8.63;5.63;;;29.00;77.30;;;;;;4889394;29;20061;-76
2023/06/27 10:50:05;;;;;;;10.40;6.28;;;29.20;76.20;;;;;;4894063;29;20052;-76
2023/06/27 10:53:08;;;;;;;8.85;5.53;;;29.20;75.30;;;;;;4884288;29;20088;-74
2023/06/27 10:55:38;;;;;;;7.72;5.13;;;29.00;74.80;;;;;;4869772;29;20045;-77
2023/06/27 10:58:44;;;;;;;8.25;5.00;;;28.40;74.40;;;;;;4866037;29;20056;-76
2023/06/27 11:01:20;;;;;;;8.23;5.13;;;28.00;75.40;;;;;;4884252;29;20053;-77
2023/06/27 11:03:56;;;;;;;11.15;6.00;;;28.00;74.60;;;;;;4886171;29;20045;-77
2023/06/27 11:06:45;;;;;;;10.98;5.25;;;28.00;74.50;;;;;;4883567;29;20052;-75
2023/06/27 11:09:17;;;;;;;7.40;4.78;;;28.20;74.80;;;;;;4866128;29;20423;-75
2023/06/27 11:11:54;;;;;;;10.93;5.07;;;28.50;74.20;;;;;;4886324;29;20085;-77
2023/06/27 11:17:29;;;;;;;12.07;5.88;;;28.50;75.20;;;;;;4863194;29;20034;-74
2023/06/27 11:20:35;;;;;;;10.02;5.70;;;28.40;73.90;;;;;;4854981;29;20029;-79
2023/06/27 11:23:25;;;;;;;8.73;5.15;;;28.10;73.80;;;;;;4862398;29;20041;-77
2023/06/27 11:26:19;;;;;;;15.13;7.63;;;28.10;74.20;;;;;;4865929;29;20042;-77
2023/06/27 11:29:40;;;;;;;11.93;7.75;;;28.00;73.20;;;;;;4896271;23;20071;-79
2023/06/27 11:33:25;;;;;;;8.93;5.70;;;28.40;74.30;;;;;;4881952;29;20563;-75
2023/06/27 11:44:31;;;;;;;9.40;5.95;;;29.30;72.00;;;;;;3069102;27;20040;-82
2023/06/27 11:47:47;;;;;;;10.98;5.57;;;29.40;72.10;;;;;;4868582;29;20120;-76
2023/06/27 11:50:32;;;;;;;8.13;5.85;;;29.50;70.70;;;;;;4884956;29;20528;-77
2023/06/27 11:54:06;;;;;;;10.15;4.72;;;29.50;72.20;;;;;;4921498;29;20192;-79
2023/06/27 11:56:51;;;;;;;8.68;5.30;;;29.60;70.60;;;;;;4915421;29;20044;-76
2023/06/27 11:59:32;;;;;;;14.98;5.43;;;29.70;70.90;;;;;;4931167;29;20099;-76
2023/06/27 12:03:04;;;;;;;;;;;;;;;;;;;;;
2023/06/27 12:07:09;;;;;;;9.52;4.93;;;29.60;70.40;;;;;;4872236;29;20424;-80
2023/06/27 12:15:00;;;;;;;9.00;4.95;;;30.10;68.30;;;;;;4996752;23;20064;-79
2023/06/27 12:18:23;;;;;;;9.48;5.15;;;30.00;69.60;;;;;;4867726;29;20440;-81
2023/06/27 12:21:21;;;;;;;7.18;4.55;;;30.10;69.60;;;;;;4871485;29;20057;-79
2023/06/27 12:29:35;;;;;;;7.78;4.80;;;29.90;68.20;;;;;;4938512;23;20075;-79
2023/06/27 12:32:07;;;;;;;8.55;5.32;;;29.80;68.70;;;;;;4929990;29;20043;-76
2023/06/27 12:36:19;;;;;;;9.90;5.20;;;29.70;68.60;;;;;;4878567;29;20044;-77
2023/06/27 12:44:49;;;;;;;;;;;;;;;;;;;;;
2023/06/27 12:48:04;;;;;;;7.15;5.00;;;30.40;67.20;;;;;;4897158;29;20051;-81
2023/06/27 13:08:13;;;;;;;8.45;4.93;;;30.90;65.60;;;;;;4928633;29;20035;-79
2023/06/27 13:24:21;;;;;;;14.45;11.23;;;31.10;62.70;;;;;;4886392;29;20071;-79
2023/06/27 13:34:23;;;;;;;13.17;7.37;;;30.70;63.40;;;;;;4859247;27;20501;-77
2023/06/27 13:37:21;;;;;;;8.32;5.15;;;30.70;64.20;;;;;;4875616;29;20080;-77
2023/06/27 13:39:59;;;;;;;7.22;4.70;;;30.10;62.80;;;;;;4894783;29;20037;-75
2023/06/27 13:43:16;;;;;;;10.73;5.93;;;30.00;63.40;;;;;;4870205;29;20074;-76
2023/06/27 13:45:54;;;;;;;9.27;5.32;;;30.00;64.20;;;;;;4884136;29;20129;-78
2023/06/27 13:48:26;;;;;;;9.30;6.00;;;29.90;65.60;;;;;;4884736;29;20493;-78
2023/06/27 13:51:21;;;;;;;8.15;5.22;;;29.90;65.20;;;;;;4905108;29;20101;-80
2023/06/27 13:54:26;;;;;;;8.55;5.35;;;30.00;64.80;;;;;;4837758;29;20237;-78
2023/06/27 14:04:51;;;;;;;15.35;10.57;;;29.60;66.90;;;;;;4827448;29;20062;-80
2023/06/27 14:11:44;;;;;;;20.77;15.45;;;29.50;67.40;;;;;;4822273;29;20050;-76
2023/06/27 14:14:12;;;;;;;15.48;10.93;;;29.40;68.00;;;;;;4850705;29;20140;-82
2023/06/27 14:16:50;;;;;;;12.82;8.65;;;29.70;68.30;;;;;;4889801;29;20056;-80
2023/06/27 14:27:26;;;;;;;;;;;;;;;;;;;;;
2023/06/27 14:33:27;;;;;;;9.45;5.68;;;33.50;60.20;;;;;;5544810;23;20041;-77
2023/06/27 14:36:01;;;;;;;;;;;33.50;59.70;;;;;;4898908;29;20070;-76
2023/06/27 15:11:16;;;;;;;7.72;4.72;;;40.30;48.90;;;;;;4958840;23;20052;-78
2023/06/27 15:18:34;;;;;;;8.82;5.28;;;41.10;48.00;;;;;;4849789;29;20116;-78
2023/06/27 15:30:59;;;;;;;7.78;4.32;;;39.50;48.10;;;;;;5468129;23;20371;-79
2023/06/27 15:33:33;;;;;;;8.45;5.00;;;40.10;48.00;;;;;;4920420;29;20052;-79
2023/06/27 15:36:45;;;;;;;7.10;4.18;;;39.30;49.90;;;;;;5066940;23;20044;-76
2023/06/27 15:39:13;;;;;;;7.40;4.70;;;39.80;48.10;;;;;;4920454;29;20115;-82
2023/06/27 15:41:41;;;;;;;6.95;5.15;;;39.10;49.30;;;;;;4926345;29;20105;-82
2023/06/27 15:54:58;;;;;;;93.57;84.32;;;39.90;48.10;;;;;;3958596;27;20049;-77
2023/06/27 16:01:38;;;;;;;12.23;11.02;;;40.20;47.60;;;;;;5456561;23;20396;-80
2023/06/27 16:04:05;;;;;;;9.63;7.63;;;39.50;47.50;;;;;;5013114;23;20067;-75
2023/06/27 16:17:14;;;;;;;19.15;17.08;;;39.40;47.90;;;;;;5405973;23;20048;-79
2023/06/27 16:24:20;;;;;;;13.35;10.15;;;38.90;47.80;;;;;;4917261;29;20036;-79
2023/06/27 16:30:18;;;;;;;9.75;4.60;;;38.00;49.10;;;;;;5047360;23;20043;-81
2023/06/27 16:33:40;;;;;;;7.97;4.50;;;36.80;51.40;;;;;;4916330;29;20044;-79
2023/06/27 16:36:46;;;;;;;9.70;4.90;;;37.60;51.30;;;;;;4874691;29;20061;-79
2023/06/27 16:44:30;;;;;;;9.30;3.88;;;38.10;50.20;;;;;;4878822;29;20398;-79
2023/06/27 16:58:32;;;;;;;12.75;8.13;;;35.20;53.00;;;;;;4896126;23;20059;-82
2023/06/27 17:14:42;;;;;;;7.95;5.50;;;31.40;61.20;;;;;;4962689;23;20226;-79
2023/06/27 17:38:39;;;;;;;8.15;5.50;;;29.60;68.60;;;;;;4912533;29;20037;-76
2023/06/27 17:56:14;;;;;;;7.57;5.00;;;28.60;71.40;;;;;;5264100;23;20108;-78
2023/06/27 18:28:30;;;;;;;12.32;6.15;;;27.60;75.00;;;;;;4890838;29;20489;-77
2023/06/27 18:31:02;;;;;;;9.80;6.15;;;27.50;74.40;;;;;;4877563;29;20048;-78
2023/06/27 18:33:31;;;;;;;25.48;16.65;;;27.50;73.60;;;;;;4898666;29;20051;-80
2023/06/27 18:36:03;;;;;;;14.32;9.05;;;27.40;75.10;;;;;;4897897;29;20040;-77
2023/06/27 18:39:09;;;;;;;11.30;6.20;;;27.40;74.60;;;;;;4901835;29;20080;-76
2023/06/27 18:42:06;;;;;;;11.90;6.13;;;27.30;73.10;;;;;;4904198;23;20055;-78
2023/06/27 18:49:09;;;;;;;9.73;6.45;;;27.20;73.80;;;;;;4911098;29;20068;-78
2023/06/27 18:51:39;;;;;;;11.45;6.07;;;27.00;74.30;;;;;;4919173;29;20139;-79
2023/06/27 19:02:11;;;;;;;12.05;5.88;;;26.80;74.50;;;;;;4910880;29;20073;-79
2023/06/27 19:13:45;;;;;;;8.57;5.70;;;26.80;77.50;;;;;;4873013;29;20055;-80
2023/06/27 19:17:44;;;;;;;10.07;6.05;;;26.80;76.90;;;;;;4918869;29;20047;-78
2023/06/27 19:20:34;;;;;;;9.23;5.80;;;26.60;77.40;;;;;;4919943;29;20068;-79
2023/06/27 19:23:15;;;;;;;12.85;6.43;;;26.30;78.00;;;;;;4912486;23;20044;-77
2023/06/27 19:26:59;;;;;;;11.38;6.78;;;26.30;77.80;;;;;;4907548;29;20047;-77
2023/06/27 19:29:43;;;;;;;8.75;6.13;;;26.20;77.90;;;;;;4917992;29;20036;-76
2023/06/27 19:33:11;;;;;;;9.68;6.03;;;26.00;78.50;;;;;;4901174;29;20049;-78
2023/06/27 19:36:08;;;;;;;9.70;6.10;;;26.10;78.10;;;;;;5070532;23;20021;-78
2023/06/27 19:39:35;;;;;;;;;;;;;;;;;;;;;
2023/06/27 19:42:30;;;;;;;9.70;5.97;;;26.20;78.00;;;;;;4918384;29;20051;-77
2023/06/27 19:44:58;;;;;;;9.90;6.57;;;25.80;80.20;;;;;;4922224;29;20072;-76
2023/06/27 19:47:33;;;;;;;13.43;6.10;;;25.70;80.30;;;;;;4921112;29;20068;-79
2023/06/27 19:50:09;;;;;;;23.98;8.15;;;25.70;80.60;;;;;;4921728;29;20119;-83
2023/06/27 20:03:44;;;;;;;15.70;6.22;;;26.20;80.60;;;;;;4887232;29;20456;-77
2023/06/27 20:06:53;;;;;;;12.77;6.45;;;26.10;81.20;;;;;;4912335;29;20128;-77
2023/06/27 20:11:20;;;;;;;;;;;;;;;;;;;;;
2023/06/27 20:14:46;;;;;;;12.85;6.65;;;26.10;82.20;;;;;;4748138;30;20063;-79
2023/06/27 20:17:18;;;;;;;15.45;7.85;;;25.80;82.90;;;;;;4760739;30;20119;-82